Time;durP1;ratioP1;P1;durP2;ratioP2;P2;SDS_P1;SDS_P2;PMS_P1;PMS_P2;Temp;Humidity;BMP_temperature;BMP_pressure;BME280_temperature;BME280_humidity;BME280_pressure;Samples;Min_cycle;Max_cycle;Signal;HPM_P1;HPM_P2
2022/08/13 00:01:25;;;;;;;1.40;1.30;;;19.10;70.20;;;;;;4994056;28;20993;-78
2022/08/13 00:03:53;;;;;;;1.63;1.20;;;19.00;71.40;;;;;;4994949;28;20416;-78
2022/08/13 00:06:36;;;;;;;1.10;1.00;;;18.90;72.60;;;;;;5010960;28;20436;-78
2022/08/13 00:09:12;;;;;;;6.93;1.70;;;18.80;73.90;;;;;;4995702;28;20515;-80
2022/08/13 00:14:31;;;;;;;3.27;1.20;;;18.70;77.30;;;;;;5011105;28;20431;-77
2022/08/13 00:16:57;;;;;;;1.73;1.20;;;18.80;78.00;;;;;;4978451;28;20435;-80
2022/08/13 00:19:26;;;;;;;2.03;1.30;;;18.70;80.00;;;;;;4993060;28;20799;-78
2022/08/13 00:21:57;;;;;;;1.93;1.53;;;18.70;79.60;;;;;;4993328;28;20494;-78
2022/08/13 00:24:22;;;;;;;1.80;1.30;;;18.60;80.40;;;;;;5011192;28;20408;-78
2022/08/13 00:26:48;;;;;;;2.73;1.33;;;18.50;80.50;;;;;;4977007;28;20999;-79
2022/08/13 00:29:15;;;;;;;2.87;1.60;;;18.50;82.40;;;;;;4993014;28;20185;-78
2022/08/13 00:31:41;;;;;;;1.50;1.40;;;18.50;83.20;;;;;;4977064;28;20199;-78
2022/08/13 00:34:07;;;;;;;1.83;1.60;;;18.50;83.50;;;;;;4976804;28;20438;-78
2022/08/13 00:36:35;;;;;;;6.33;1.57;;;18.60;84.40;;;;;;4976795;28;20446;-78
2022/08/13 00:39:06;;;;;;;6.00;1.50;;;18.50;85.30;;;;;;5010458;28;20268;-78
2022/08/13 00:41:38;;;;;;;1.50;1.40;;;18.40;84.60;;;;;;5010407;28;20562;-77
2022/08/13 00:44:06;;;;;;;1.60;1.30;;;18.40;84.50;;;;;;5010367;28;20420;-78
2022/08/13 00:46:32;;;;;;;1.90;1.40;;;18.30;86.10;;;;;;5010226;28;20512;-77
2022/08/13 00:48:58;;;;;;;2.50;1.20;;;18.30;86.60;;;;;;4992574;28;20873;-78
2022/08/13 00:51:26;;;;;;;1.67;1.57;;;18.30;86.80;;;;;;5010395;28;20541;-78
2022/08/13 00:53:58;;;;;;;3.40;1.57;;;18.30;88.40;;;;;;4992809;28;20427;-78
2022/08/13 00:56:24;;;;;;;3.53;1.60;;;18.40;85.90;;;;;;4976533;28;20443;-77
2022/08/13 00:58:51;;;;;;;1.87;1.67;;;18.50;86.70;;;;;;5009834;28;20518;-78
2022/08/13 01:01:22;;;;;;;3.43;1.60;;;18.40;88.50;;;;;;5010404;28;20482;-81
2022/08/13 01:03:47;;;;;;;3.73;1.60;;;18.30;89.50;;;;;;5010882;28;20403;-79
2022/08/13 01:06:13;;;;;;;2.50;1.87;;;18.30;90.40;;;;;;4976866;28;20538;-79
2022/08/13 01:08:40;;;;;;;6.77;1.40;;;18.20;90.70;;;;;;4977523;28;20192;-80
2022/08/13 01:11:11;;;;;;;2.50;1.60;;;18.10;90.90;;;;;;4976739;28;20220;-79
2022/08/13 01:13:39;;;;;;;2.00;1.40;;;17.80;92.00;;;;;;4992512;28;20434;-79
2022/08/13 01:16:07;;;;;;;1.47;1.37;;;17.90;92.40;;;;;;4976017;28;20961;-79
2022/08/13 01:18:36;;;;;;;1.93;1.60;;;17.90;92.60;;;;;;5009853;28;20454;-77
2022/08/13 01:21:15;;;;;;;2.50;1.53;;;17.70;93.20;;;;;;5010414;28;20474;-78
2022/08/13 01:23:46;;;;;;;3.40;2.10;;;17.70;93.60;;;;;;5010012;28;20947;-78
2022/08/13 01:26:18;;;;;;;1.80;1.57;;;17.60;94.40;;;;;;4991418;28;20441;-77
2022/08/13 01:28:45;;;;;;;1.87;1.73;;;17.50;95.20;;;;;;5008708;28;20511;-77
2022/08/13 01:31:14;;;;;;;2.07;1.30;;;17.40;95.10;;;;;;4991262;28;20823;-77
2022/08/13 01:33:41;;;;;;;2.03;1.57;;;17.30;95.80;;;;;;4977725;28;20969;-78
2022/08/13 01:36:08;;;;;;;1.50;1.40;;;17.30;96.10;;;;;;5013409;28;20518;-80
2022/08/13 01:38:36;;;;;;;1.80;1.70;;;17.10;96.70;;;;;;5013154;28;20441;-78
2022/08/13 01:41:02;;;;;;;1.90;1.70;;;17.10;97.30;;;;;;5012912;28;20470;-78
2022/08/13 01:43:30;;;;;;;1.67;1.57;;;17.00;97.80;;;;;;5012732;28;20479;-78
2022/08/13 01:46:00;;;;;;;2.60;1.27;;;16.90;98.60;;;;;;5012852;28;20531;-78
2022/08/13 01:51:24;;;;;;;1.60;1.50;;;16.80;99.40;;;;;;5013745;28;20495;-79
2022/08/13 01:53:58;;;;;;;1.60;1.50;;;16.70;99.90;;;;;;5013282;28;20911;-80
2022/08/13 01:56:24;;;;;;;3.00;1.83;;;16.70;99.90;;;;;;4995378;28;20924;-78
2022/08/13 01:58:51;;;;;;;3.33;1.90;;;16.70;99.90;;;;;;5012809;28;20475;-79
2022/08/13 02:01:17;;;;;;;3.63;2.33;;;16.60;99.90;;;;;;5012739;28;20490;-79
2022/08/13 02:03:49;;;;;;;3.23;1.97;;;16.60;99.90;;;;;;4995295;28;20796;-79
2022/08/13 02:06:21;;;;;;;1.70;1.60;;;16.60;99.90;;;;;;4994755;28;20262;-78
2022/08/13 02:08:50;;;;;;;3.00;1.93;;;16.70;99.90;;;;;;5013075;28;20474;-80
2022/08/13 02:11:16;;;;;;;2.03;1.93;;;16.70;99.90;;;;;;4979603;28;20518;-79
2022/08/13 02:13:42;;;;;;;2.27;1.87;;;16.80;99.90;;;;;;4994565;28;20426;-79
2022/08/13 02:16:08;;;;;;;3.67;1.90;;;16.80;99.90;;;;;;4994544;28;20519;-77
2022/08/13 02:18:34;;;;;;;4.03;2.30;;;16.80;99.90;;;;;;4994579;28;20857;-77
2022/08/13 02:21:02;;;;;;;3.03;1.93;;;16.80;99.90;;;;;;4994197;28;20824;-77
2022/08/13 02:23:31;;;;;;;2.13;1.93;;;16.80;99.90;;;;;;4994353;28;20429;-78
2022/08/13 02:25:59;;;;;;;2.93;1.80;;;16.70;99.90;;;;;;4994267;28;20427;-78
2022/08/13 02:28:28;;;;;;;1.93;1.83;;;16.60;99.90;;;;;;4996562;28;20801;-78
2022/08/13 02:30:56;;;;;;;2.57;2.10;;;16.40;99.90;;;;;;4996173;28;20529;-78
2022/08/13 02:33:22;;;;;;;2.47;1.70;;;16.40;99.90;;;;;;5011978;28;20427;-78
2022/08/13 02:35:48;;;;;;;1.87;1.63;;;16.30;99.90;;;;;;5011978;28;20795;-77
2022/08/13 02:38:15;;;;;;;2.23;2.03;;;16.30;99.90;;;;;;4994519;28;20435;-78
2022/08/13 02:43:27;;;;;;;1.77;1.67;;;16.30;99.90;;;;;;4997651;28;20422;-78
2022/08/13 02:45:54;;;;;;;2.50;2.23;;;16.20;99.90;;;;;;5011886;28;20419;-78
2022/08/13 02:48:22;;;;;;;4.97;2.47;;;16.10;99.90;;;;;;4978897;28;20439;-77
2022/08/13 02:50:49;;;;;;;2.40;1.93;;;16.00;99.90;;;;;;5012358;28;20439;-78
2022/08/13 02:53:15;;;;;;;8.20;2.27;;;15.90;99.90;;;;;;5012863;28;20509;-77
2022/08/13 02:55:41;;;;;;;2.27;2.07;;;15.80;99.90;;;;;;5013600;28;20427;-79
2022/08/13 02:58:08;;;;;;;3.37;1.90;;;15.80;99.90;;;;;;4996874;28;20431;-80
2022/08/13 03:00:34;;;;;;;5.60;1.70;;;15.80;99.90;;;;;;4996490;28;21103;-79
2022/08/13 03:03:01;;;;;;;3.93;2.27;;;15.80;99.90;;;;;;4978814;28;20960;-78
2022/08/13 03:05:30;;;;;;;2.57;2.10;;;15.80;99.90;;;;;;4994307;28;20434;-79
2022/08/13 03:07:57;;;;;;;1.93;1.73;;;15.80;99.90;;;;;;4979458;28;20434;-79
2022/08/13 03:10:28;;;;;;;1.90;1.67;;;15.80;99.90;;;;;;5012775;28;20471;-78
2022/08/13 03:13:02;;;;;;;2.43;2.07;;;15.80;99.90;;;;;;5013758;28;20430;-81
2022/08/13 03:15:29;;;;;;;3.13;1.97;;;15.70;99.90;;;;;;4995708;28;20432;-78
2022/08/13 03:17:55;;;;;;;3.60;1.87;;;15.70;99.90;;;;;;4995477;28;20818;-79
2022/08/13 03:20:20;;;;;;;2.80;2.00;;;15.50;99.90;;;;;;4978806;28;20455;-78
2022/08/13 03:22:56;;;;;;;2.63;2.43;;;15.50;99.90;;;;;;4978876;28;20980;-78
2022/08/13 03:25:25;;;;;;;2.00;1.90;;;15.50;99.90;;;;;;5011861;28;20168;-79
2022/08/13 03:27:53;;;;;;;2.90;2.37;;;15.50;99.90;;;;;;4979642;28;20441;-78
2022/08/13 03:30:21;;;;;;;1.77;1.67;;;15.50;99.90;;;;;;4994199;28;20434;-80
2022/08/13 03:32:49;;;;;;;3.30;1.90;;;15.50;99.90;;;;;;5012506;28;20423;-80
2022/08/13 03:35:23;;;;;;;4.53;2.30;;;15.50;99.90;;;;;;5013783;28;20453;-81
2022/08/13 03:37:55;;;;;;;2.53;2.00;;;15.40;99.90;;;;;;4995988;28;20434;-80
2022/08/13 03:41:00;;;;;;;3.10;2.40;;;15.30;99.90;;;;;;4995344;28;20450;-78
2022/08/13 03:43:12;;;;;;;2.00;1.77;;;15.20;99.90;;;;;;5011071;28;20443;-78
2022/08/13 03:45:37;;;;;;;3.57;2.00;;;15.10;99.90;;;;;;5011388;28;20756;-78
2022/08/13 03:48:04;;;;;;;4.00;2.17;;;15.20;99.90;;;;;;4977421;28;20484;-79
2022/08/13 03:50:30;;;;;;;2.23;1.90;;;15.20;99.90;;;;;;5010914;28;20301;-78
2022/08/13 03:53:04;;;;;;;1.80;1.70;;;15.30;99.90;;;;;;5010732;28;20507;-78
2022/08/13 03:55:30;;;;;;;1.90;1.80;;;15.30;99.90;;;;;;5010412;28;20413;-78
2022/08/13 03:57:57;;;;;;;3.53;2.50;;;15.30;99.90;;;;;;5010937;28;20417;-77
2022/08/13 04:00:23;;;;;;;2.03;1.80;;;15.30;99.90;;;;;;4992581;28;20892;-78
2022/08/13 04:02:51;;;;;;;1.90;1.80;;;15.30;99.90;;;;;;4992544;28;20482;-78
2022/08/13 04:05:17;;;;;;;2.47;2.20;;;15.40;99.90;;;;;;5011103;28;20445;-80
2022/08/13 04:07:44;;;;;;;2.30;2.20;;;15.40;99.90;;;;;;5012133;28;20431;-81
2022/08/13 04:10:12;;;;;;;2.80;1.90;;;15.50;99.90;;;;;;4993146;28;20208;-78
2022/08/13 04:12:38;;;;;;;2.50;2.30;;;15.50;99.90;;;;;;5009808;28;20803;-78
2022/08/13 04:15:06;;;;;;;2.00;1.87;;;15.50;99.90;;;;;;5010006;28;20427;-77
2022/08/13 04:17:35;;;;;;;2.23;2.00;;;15.50;99.90;;;;;;4992389;28;20433;-77
2022/08/13 04:20:02;;;;;;;2.20;2.00;;;15.50;99.90;;;;;;4993313;28;20467;-79
2022/08/13 04:22:28;;;;;;;2.30;1.90;;;15.50;99.90;;;;;;4993171;28;20474;-81
2022/08/13 04:24:54;;;;;;;4.97;1.80;;;15.40;99.90;;;;;;4993257;28;20426;-81
2022/08/13 04:27:20;;;;;;;6.13;1.83;;;15.50;99.90;;;;;;4993994;28;20432;-82
2022/08/13 04:29:46;;;;;;;1.77;1.67;;;15.50;99.90;;;;;;5010442;28;20442;-74
2022/08/13 04:32:11;;;;;;;2.80;2.17;;;15.40;99.90;;;;;;4992090;28;20195;-74
2022/08/13 04:34:37;;;;;;;3.63;1.80;;;15.30;99.90;;;;;;5010015;28;20246;-82
2022/08/13 04:37:04;;;;;;;3.90;2.30;;;15.20;99.90;;;;;;4993486;28;20571;-80
2022/08/13 04:39:29;;;;;;;5.13;2.13;;;15.10;99.90;;;;;;4978036;28;20199;-81
2022/08/13 04:41:55;;;;;;;2.60;2.40;;;15.10;99.90;;;;;;4992854;28;20820;-77
2022/08/13 04:44:21;;;;;;;3.70;2.23;;;15.10;99.90;;;;;;5011281;28;20189;-79
2022/08/13 04:46:46;;;;;;;4.20;2.20;;;15.00;99.90;;;;;;4994115;28;20694;-77
2022/08/13 04:49:12;;;;;;;2.67;2.30;;;15.00;99.90;;;;;;4977950;28;20213;-78
2022/08/13 04:51:39;;;;;;;2.60;2.40;;;15.00;99.90;;;;;;5009064;28;20798;-75
2022/08/13 04:54:05;;;;;;;2.20;2.03;;;15.00;99.90;;;;;;5010367;28;20195;-78
2022/08/13 04:56:30;;;;;;;5.27;2.10;;;15.00;99.90;;;;;;4991950;28;20420;-75
2022/08/13 04:58:57;;;;;;;5.83;2.60;;;15.00;99.90;;;;;;4977391;28;20808;-77
2022/08/13 05:01:23;;;;;;;3.50;2.40;;;15.00;99.90;;;;;;5011397;28;20206;-77
2022/08/13 05:03:48;;;;;;;2.60;2.40;;;15.00;99.90;;;;;;4994262;28;20422;-77
2022/08/13 05:06:21;;;;;;;4.33;2.30;;;15.00;99.90;;;;;;5011897;28;20438;-78
2022/08/13 05:08:48;;;;;;;2.70;2.50;;;14.90;99.90;;;;;;4991776;28;20229;-76
2022/08/13 05:11:15;;;;;;;3.33;2.27;;;15.00;99.90;;;;;;5009105;28;20454;-76
2022/08/13 05:13:43;;;;;;;4.40;2.40;;;14.90;99.90;;;;;;4991744;28;20425;-76
2022/08/13 05:16:12;;;;;;;4.13;2.70;;;15.00;99.90;;;;;;5010472;28;20450;-79
2022/08/13 05:18:42;;;;;;;2.90;2.53;;;14.80;99.90;;;;;;5012733;28;20436;-76
2022/08/13 05:21:08;;;;;;;4.83;2.73;;;14.90;99.90;;;;;;5012422;28;20658;-78
2022/08/13 05:23:36;;;;;;;4.13;2.10;;;15.00;99.90;;;;;;5011164;28;20426;-77
2022/08/13 05:26:02;;;;;;;2.20;2.00;;;15.00;99.90;;;;;;5010985;28;20506;-78
2022/08/13 05:28:29;;;;;;;3.20;2.30;;;15.00;99.90;;;;;;4992904;28;20556;-77
2022/08/13 05:30:55;;;;;;;4.03;2.73;;;15.20;99.90;;;;;;5009918;28;20194;-75
2022/08/13 05:33:22;;;;;;;6.03;2.20;;;15.50;99.90;;;;;;4978351;28;20970;-77
2022/08/13 05:35:59;;;;;;;2.80;2.60;;;15.70;99.90;;;;;;4993008;28;20203;-77
2022/08/13 05:38:27;;;;;;;2.50;2.30;;;15.80;99.90;;;;;;4991163;28;20429;-75
2022/08/13 05:41:03;;;;;;;3.50;2.53;;;15.90;99.90;;;;;;5008593;28;20490;-76
2022/08/13 05:43:35;;;;;;;3.10;2.80;;;16.00;99.90;;;;;;5011347;28;20430;-77
2022/08/13 05:46:05;;;;;;;6.73;2.23;;;16.20;99.90;;;;;;4991647;28;20546;-74
2022/08/13 05:48:55;;;;;;;2.70;2.50;;;16.30;99.90;;;;;;4991784;28;20431;-79
2022/08/13 05:51:28;;;;;;;2.00;1.80;;;16.40;99.90;;;;;;4993656;28;20978;-77
2022/08/13 05:53:55;;;;;;;2.30;2.10;;;16.50;99.90;;;;;;4994070;28;20935;-77
2022/08/13 05:56:25;;;;;;;2.53;2.33;;;16.70;99.90;;;;;;4994920;28;20924;-77
2022/08/13 05:58:52;;;;;;;3.27;2.00;;;16.90;99.90;;;;;;4994128;28;20426;-77
2022/08/13 06:04:19;;;;;;;3.80;2.77;;;17.20;99.90;;;;;;5012593;28;20473;-77
2022/08/13 06:06:46;;;;;;;2.20;2.00;;;17.30;99.90;;;;;;4992980;28;20473;-77
2022/08/13 06:09:13;;;;;;;3.50;2.30;;;17.50;99.90;;;;;;5009246;28;20954;-77
2022/08/13 06:11:43;;;;;;;3.30;2.30;;;17.70;99.90;;;;;;4990987;28;20451;-77
2022/08/13 06:14:23;;;;;;;2.17;2.07;;;17.90;99.90;;;;;;4975178;28;21003;-77
2022/08/13 06:16:51;;;;;;;2.60;2.10;;;18.10;99.90;;;;;;4991270;28;20428;-77
2022/08/13 06:19:20;;;;;;;2.43;2.10;;;18.30;99.90;;;;;;5010289;28;20422;-77
2022/08/13 06:21:48;;;;;;;2.10;1.90;;;18.40;99.90;;;;;;4994708;28;20459;-77
2022/08/13 06:24:15;;;;;;;4.87;2.03;;;18.70;99.90;;;;;;4978295;28;20431;-77
2022/08/13 06:26:41;;;;;;;2.13;1.93;;;18.90;99.90;;;;;;4979979;28;20479;-77
2022/08/13 06:29:07;;;;;;;3.97;1.80;;;19.00;99.90;;;;;;4995538;28;20454;-77
2022/08/13 06:31:38;;;;;;;2.20;2.00;;;19.00;99.90;;;;;;4996239;28;20211;-79
2022/08/13 06:34:09;;;;;;;2.40;2.20;;;19.00;99.90;;;;;;5014678;28;20428;-77
2022/08/13 06:36:37;;;;;;;3.80;2.20;;;19.20;99.90;;;;;;5012773;28;20514;-77
2022/08/13 06:39:05;;;;;;;5.77;2.33;;;19.20;99.90;;;;;;5012442;28;20447;-77
2022/08/13 06:41:33;;;;;;;3.30;2.30;;;19.30;99.90;;;;;;4994468;28;20471;-77
2022/08/13 06:43:59;;;;;;;6.80;1.93;;;19.40;99.90;;;;;;4994780;28;20500;-77
2022/08/13 06:46:28;;;;;;;11.20;2.27;;;19.50;99.90;;;;;;4978628;28;21008;-77
2022/08/13 06:48:58;;;;;;;14.33;2.47;;;19.60;99.90;;;;;;5012235;28;20184;-77
2022/08/13 06:51:25;;;;;;;2.40;2.20;;;19.70;99.90;;;;;;5012709;28;20440;-77
2022/08/13 06:53:50;;;;;;;9.83;2.00;;;19.80;99.90;;;;;;4994440;28;20517;-77
2022/08/13 06:56:21;;;;;;;2.77;2.03;;;19.90;99.90;;;;;;4994256;28;20484;-77
2022/08/13 06:58:49;;;;;;;3.13;1.90;;;20.00;99.90;;;;;;4995773;28;20189;-77
2022/08/13 07:01:20;;;;;;;2.70;1.80;;;20.00;99.90;;;;;;4994065;28;20471;-77
2022/08/13 07:03:46;;;;;;;4.07;2.30;;;19.90;99.90;;;;;;4994169;28;20443;-77
2022/08/13 07:06:18;;;;;;;1.87;1.70;;;20.00;99.90;;;;;;4994911;28;20444;-77
2022/08/13 07:08:45;;;;;;;5.07;1.97;;;19.90;99.90;;;;;;5011642;28;20478;-77
2022/08/13 07:11:23;;;;;;;2.80;2.13;;;20.10;99.90;;;;;;4994201;28;20479;-77
2022/08/13 07:13:57;;;;;;;2.40;1.60;;;20.10;99.80;;;;;;4993706;28;20801;-77
2022/08/13 07:16:25;;;;;;;4.57;2.20;;;20.10;99.70;;;;;;4993907;28;20812;-77
2022/08/13 07:18:51;;;;;;;2.00;1.90;;;20.00;99.90;;;;;;4977675;28;20513;-77
2022/08/13 07:21:22;;;;;;;2.57;2.17;;;20.00;99.90;;;;;;5014983;28;20830;-79
2022/08/13 07:23:50;;;;;;;2.40;2.20;;;19.90;99.90;;;;;;4997848;28;20431;-78
2022/08/13 07:26:18;;;;;;;2.03;1.93;;;19.90;99.90;;;;;;4997321;28;20444;-79
2022/08/13 07:28:46;;;;;;;2.23;1.90;;;19.90;99.90;;;;;;5011288;28;20424;-77
2022/08/13 07:31:13;;;;;;;5.60;2.67;;;20.00;99.50;;;;;;5010583;28;20458;-79
2022/08/13 07:33:48;;;;;;;3.03;2.10;;;20.00;99.70;;;;;;4976863;28;20420;-77
2022/08/13 07:36:14;;;;;;;3.00;2.27;;;20.10;99.40;;;;;;5009899;28;20424;-77
2022/08/13 07:38:43;;;;;;;2.53;2.33;;;20.20;99.80;;;;;;4992090;28;20835;-77
2022/08/13 07:41:12;;;;;;;2.80;2.50;;;20.00;98.90;;;;;;4991459;28;20475;-77
2022/08/13 07:43:43;;;;;;;10.73;2.50;;;20.00;98.90;;;;;;4992517;28;20427;-76
2022/08/13 07:46:12;;;;;;;3.23;2.10;;;20.00;99.10;;;;;;5009546;28;20472;-74
2022/08/13 07:48:40;;;;;;;4.77;2.10;;;20.00;99.60;;;;;;4991468;28;20448;-76
2022/08/13 07:51:19;;;;;;;3.33;2.00;;;20.10;99.90;;;;;;4975109;28;20436;-77
2022/08/13 07:53:54;;;;;;;2.67;2.20;;;20.20;99.90;;;;;;4993846;28;20418;-77
2022/08/13 07:56:23;;;;;;;3.67;2.20;;;20.30;99.90;;;;;;5009441;28;20470;-78
2022/08/13 07:58:49;;;;;;;12.10;2.20;;;20.30;99.90;;;;;;4991261;28;20420;-76
2022/08/13 08:01:15;;;;;;;5.33;2.30;;;20.40;99.90;;;;;;4991501;28;20517;-77
2022/08/13 08:03:45;;;;;;;2.90;2.10;;;20.60;99.50;;;;;;4975164;28;20897;-77
2022/08/13 08:06:14;;;;;;;3.07;2.03;;;20.70;99.80;;;;;;4991509;28;20201;-77
2022/08/13 08:08:42;;;;;;;2.50;2.30;;;20.70;99.40;;;;;;5009108;28;20832;-77
2022/08/13 08:12:30;;;;;;;3.60;2.83;;;20.80;98.20;;;;;;4975458;28;20474;-77
2022/08/13 08:13:59;;;;;;;5.83;2.40;;;20.90;99.40;;;;;;4994766;28;20428;-77
2022/08/13 08:16:29;;;;;;;4.60;2.30;;;21.10;97.90;;;;;;4993300;28;20522;-77
2022/08/13 08:18:55;;;;;;;4.20;2.33;;;21.20;98.50;;;;;;5009890;28;20424;-77
2022/08/13 08:21:23;;;;;;;6.40;1.70;;;21.20;98.40;;;;;;4991908;28;20467;-77
2022/08/13 08:23:51;;;;;;;4.70;1.83;;;21.40;98.00;;;;;;4992075;28;20439;-77
2022/08/13 08:26:18;;;;;;;4.70;2.17;;;21.60;98.20;;;;;;5009715;28;20420;-77
2022/08/13 08:28:46;;;;;;;3.47;2.30;;;21.80;96.90;;;;;;4992087;28;20507;-77
2022/08/13 08:31:11;;;;;;;8.57;2.50;;;21.90;96.10;;;;;;5010066;28;20961;-77
2022/08/13 08:33:41;;;;;;;2.40;1.77;;;22.00;96.70;;;;;;4993027;28;20461;-78
2022/08/13 08:36:08;;;;;;;5.23;2.20;;;22.10;96.00;;;;;;5010302;28;20190;-77
2022/08/13 08:44:25;;;;;;;4.47;2.13;;;22.70;94.20;;;;;;5011031;28;20421;-77
2022/08/13 08:46:55;;;;;;;4.57;2.47;;;23.00;93.00;;;;;;5008300;28;20422;-79
2022/08/13 08:49:21;;;;;;;3.27;1.93;;;23.10;92.90;;;;;;4975296;28;20878;-77
2022/08/13 08:51:50;;;;;;;2.30;1.97;;;23.30;92.80;;;;;;4975944;28;20807;-79
2022/08/13 08:54:18;;;;;;;7.33;1.90;;;23.70;91.50;;;;;;4994489;28;20425;-79
2022/08/13 08:56:45;;;;;;;5.50;1.97;;;24.00;91.30;;;;;;4991428;28;20489;-77
2022/08/13 08:59:13;;;;;;;2.00;1.80;;;24.10;90.80;;;;;;4976981;28;20541;-77
2022/08/13 09:01:40;;;;;;;7.57;1.77;;;24.30;90.60;;;;;;4992141;28;20485;-79
2022/08/13 09:04:08;;;;;;;3.23;1.87;;;24.50;89.00;;;;;;4976255;28;20463;-77
2022/08/13 09:06:35;;;;;;;3.67;1.97;;;24.50;88.00;;;;;;5010523;28;20816;-76
2022/08/13 09:09:02;;;;;;;3.03;1.83;;;24.60;86.80;;;;;;5013666;28;20490;-77
2022/08/13 09:11:34;;;;;;;1.70;1.60;;;24.70;87.30;;;;;;5003175;28;20583;-76
2022/08/13 09:14:08;;;;;;;4.37;1.80;;;24.90;85.60;;;;;;4992431;28;20437;-79
2022/08/13 09:16:37;;;;;;;1.90;1.80;;;24.90;84.10;;;;;;5013189;28;20427;-77
2022/08/13 09:19:03;;;;;;;9.20;2.40;;;24.90;85.90;;;;;;5011593;28;20431;-77
2022/08/13 09:21:29;;;;;;;8.33;1.73;;;24.90;84.40;;;;;;5010797;28;20479;-77
2022/08/13 09:23:55;;;;;;;1.93;1.83;;;24.90;84.40;;;;;;5010472;28;20539;-77
2022/08/13 09:26:22;;;;;;;2.67;1.90;;;24.80;84.90;;;;;;4993368;28;20191;-77
2022/08/13 09:28:48;;;;;;;8.83;2.43;;;24.80;83.40;;;;;;4976746;28;20481;-77
2022/08/13 09:31:16;;;;;;;7.00;2.17;;;25.00;83.30;;;;;;4993035;28;20446;-77
2022/08/13 09:33:41;;;;;;;25.40;3.60;;;25.20;83.50;;;;;;4993225;28;20431;-77
2022/08/13 09:36:11;;;;;;;13.73;2.33;;;25.40;80.90;;;;;;5010974;28;20610;-77
2022/08/13 09:38:37;;;;;;;4.67;2.30;;;25.50;79.70;;;;;;5011467;28;20196;-77
2022/08/13 09:41:27;;;;;;;2.27;1.97;;;25.40;79.80;;;;;;4992987;28;20459;-78
2022/08/13 09:43:57;;;;;;;3.00;1.97;;;25.50;80.70;;;;;;5010478;28;20478;-77
2022/08/13 09:46:23;;;;;;;6.10;1.53;;;25.90;79.50;;;;;;4975644;28;20515;-77
2022/08/13 09:48:51;;;;;;;7.50;1.90;;;25.90;76.40;;;;;;4990930;28;20449;-77
2022/08/13 09:51:17;;;;;;;5.70;2.13;;;25.80;75.70;;;;;;5008407;28;20454;-77
2022/08/13 09:53:46;;;;;;;6.97;1.70;;;26.00;74.30;;;;;;4991457;28;20430;-77
2022/08/13 09:56:17;;;;;;;3.93;1.73;;;26.10;73.40;;;;;;4995106;28;20514;-77
2022/08/13 09:58:46;;;;;;;2.07;1.73;;;26.10;73.40;;;;;;4978808;28;21342;-77
2022/08/13 10:01:13;;;;;;;9.93;1.80;;;26.70;72.40;;;;;;4993863;28;20458;-78
2022/08/13 10:03:42;;;;;;;3.17;2.00;;;27.60;68.20;;;;;;4979389;28;20549;-78
2022/08/13 10:06:10;;;;;;;4.00;1.60;;;28.10;65.10;;;;;;5012696;28;20505;-77
2022/08/13 10:08:36;;;;;;;2.53;1.57;;;28.70;63.00;;;;;;4996000;28;20457;-77
2022/08/13 10:11:02;;;;;;;7.63;1.77;;;29.20;62.40;;;;;;4995657;28;20456;-77
2022/08/13 10:13:28;;;;;;;2.20;2.03;;;29.60;59.30;;;;;;5013293;28;20434;-77
2022/08/13 10:15:54;;;;;;;1.80;1.70;;;29.80;58.50;;;;;;4995542;28;20432;-77
2022/08/13 10:18:20;;;;;;;4.40;1.60;;;29.90;57.50;;;;;;4994738;28;20203;-77
2022/08/13 10:20:50;;;;;;;2.37;1.97;;;29.90;57.50;;;;;;4995168;28;20452;-77
2022/08/13 10:23:17;;;;;;;6.10;1.67;;;29.60;57.20;;;;;;4995746;28;20510;-77
2022/08/13 10:25:45;;;;;;;2.10;1.80;;;29.30;57.00;;;;;;4996045;28;20432;-77
2022/08/13 10:28:19;;;;;;;2.83;1.93;;;29.30;57.60;;;;;;5013837;28;20455;-78
2022/08/13 10:30:46;;;;;;;3.93;1.77;;;29.20;57.60;;;;;;4995489;28;20450;-77
2022/08/13 10:33:12;;;;;;;1.63;1.53;;;29.00;54.90;;;;;;4995296;28;20509;-76
2022/08/13 10:35:39;;;;;;;3.77;1.67;;;28.90;56.50;;;;;;4978607;28;20813;-77
2022/08/13 10:38:06;;;;;;;2.03;1.77;;;28.90;53.70;;;;;;4994142;28;20420;-75
2022/08/13 10:40:32;;;;;;;4.20;1.63;;;28.50;53.20;;;;;;5011089;28;20445;-75
2022/08/13 10:42:58;;;;;;;1.90;1.80;;;28.60;53.70;;;;;;5011155;28;20475;-76
2022/08/13 10:45:24;;;;;;;3.87;1.70;;;28.50;53.50;;;;;;5012254;28;20428;-77
2022/08/13 10:47:52;;;;;;;5.13;2.30;;;28.70;55.40;;;;;;5012864;28;20181;-77
2022/08/13 10:50:21;;;;;;;2.13;1.90;;;28.80;55.30;;;;;;4993334;28;20448;-77
2022/08/13 10:52:47;;;;;;;3.30;1.87;;;28.90;54.00;;;;;;5012961;28;20420;-79
2022/08/13 10:55:14;;;;;;;4.60;1.60;;;29.00;52.00;;;;;;4995506;28;20424;-78
2022/08/13 10:57:45;;;;;;;4.20;1.73;;;29.00;49.90;;;;;;4995430;28;20212;-77
2022/08/13 11:00:14;;;;;;;3.73;1.67;;;29.20;52.60;;;;;;5013528;28;20521;-78
2022/08/13 11:02:40;;;;;;;2.70;1.50;;;29.30;49.20;;;;;;4995444;28;20472;-78
2022/08/13 11:05:08;;;;;;;2.33;1.50;;;29.20;48.70;;;;;;5012214;28;20918;-76
2022/08/13 11:07:36;;;;;;;1.53;1.40;;;29.20;47.70;;;;;;4994816;28;21300;-77
2022/08/13 11:10:04;;;;;;;3.60;1.70;;;29.20;47.20;;;;;;4995606;28;20463;-76
2022/08/13 11:12:30;;;;;;;3.73;1.40;;;29.20;48.40;;;;;;4995501;28;20435;-78
2022/08/13 11:14:55;;;;;;;2.83;1.23;;;29.10;46.10;;;;;;4995528;28;20416;-77
2022/08/13 11:17:22;;;;;;;1.60;1.40;;;29.20;45.80;;;;;;4996407;28;20432;-78
2022/08/13 11:19:49;;;;;;;3.23;1.50;;;29.20;44.80;;;;;;4978945;28;20680;-73
2022/08/13 11:22:15;;;;;;;1.37;1.27;;;29.00;46.30;;;;;;5011109;28;20497;-75
2022/08/13 11:24:41;;;;;;;2.33;1.30;;;29.00;46.10;;;;;;4993639;28;20424;-76
2022/08/13 11:27:07;;;;;;;3.10;1.53;;;29.20;46.50;;;;;;5011022;28;20435;-76
2022/08/13 11:29:33;;;;;;;1.70;1.60;;;29.40;46.00;;;;;;5010754;28;20443;-77
2022/08/13 11:31:58;;;;;;;1.37;1.20;;;29.40;45.70;;;;;;5010929;28;20678;-76
2022/08/13 11:34:25;;;;;;;1.47;1.37;;;29.40;46.50;;;;;;4994271;28;20202;-76
2022/08/13 11:36:54;;;;;;;2.20;1.50;;;29.60;47.50;;;;;;5010948;28;20311;-75
2022/08/13 11:39:20;;;;;;;3.07;1.70;;;29.70;46.60;;;;;;5010827;28;20569;-76
2022/08/13 11:41:45;;;;;;;3.13;1.50;;;29.80;45.90;;;;;;4992915;28;20573;-75
2022/08/13 11:44:11;;;;;;;3.17;1.70;;;29.70;45.20;;;;;;5010556;28;20197;-76
2022/08/13 11:46:38;;;;;;;11.77;1.77;;;29.60;43.70;;;;;;4992969;28;20200;-75
2022/08/13 11:49:04;;;;;;;5.83;1.50;;;29.60;42.60;;;;;;4992443;28;20198;-74
2022/08/13 11:51:31;;;;;;;1.93;1.40;;;29.50;42.90;;;;;;5010688;28;20454;-76
2022/08/13 11:53:57;;;;;;;1.30;1.20;;;29.30;43.00;;;;;;5010369;28;20431;-76
2022/08/13 11:56:23;;;;;;;2.17;1.30;;;29.20;43.00;;;;;;5009937;28;21139;-76
2022/08/13 11:58:51;;;;;;;1.57;1.00;;;29.40;44.10;;;;;;5009808;28;20528;-76
2022/08/13 12:01:18;;;;;;;2.50;1.30;;;29.60;43.50;;;;;;5009717;28;20201;-76
2022/08/13 12:03:44;;;;;;;2.13;1.40;;;29.60;42.00;;;;;;5009389;28;20420;-71
2022/08/13 12:06:10;;;;;;;2.73;1.40;;;29.70;42.50;;;;;;5009238;28;20498;-71
2022/08/13 12:08:37;;;;;;;1.50;1.40;;;29.80;41.90;;;;;;4991681;28;20824;-71
2022/08/13 12:11:03;;;;;;;1.63;1.53;;;29.80;40.40;;;;;;5009304;28;20424;-72
2022/08/13 12:13:29;;;;;;;1.27;1.17;;;29.50;40.00;;;;;;5009295;28;20431;-72
2022/08/13 12:15:54;;;;;;;4.70;1.40;;;29.40;41.60;;;;;;5009260;28;20416;-72
2022/08/13 12:18:21;;;;;;;1.50;1.10;;;29.30;40.10;;;;;;5008806;28;20489;-71
2022/08/13 12:20:47;;;;;;;1.60;1.13;;;29.30;40.80;;;;;;5009079;28;20199;-71
2022/08/13 12:23:12;;;;;;;1.30;1.20;;;29.40;41.50;;;;;;5009128;28;21009;-72
2022/08/13 12:25:38;;;;;;;1.63;1.40;;;29.60;40.80;;;;;;5008950;28;20428;-72
2022/08/13 12:28:11;;;;;;;1.40;1.30;;;29.70;40.80;;;;;;4991258;28;20193;-72
2022/08/13 12:30:38;;;;;;;4.93;1.30;;;29.80;40.70;;;;;;5008903;28;20193;-72
2022/08/13 12:33:05;;;;;;;1.77;1.10;;;29.60;40.00;;;;;;5008870;28;20979;-72
2022/08/13 12:35:32;;;;;;;1.13;1.03;;;29.50;39.60;;;;;;4991420;28;20464;-72
2022/08/13 12:37:57;;;;;;;1.30;1.20;;;29.50;41.00;;;;;;4990649;28;20420;-72
2022/08/13 12:40:23;;;;;;;1.40;1.30;;;29.70;40.70;;;;;;4990434;28;20455;-72
2022/08/13 12:42:48;;;;;;;2.50;1.30;;;29.60;39.70;;;;;;4990093;28;20671;-72
2022/08/13 12:45:16;;;;;;;4.90;0.90;;;29.60;40.40;;;;;;5008035;28;20188;-72
2022/08/13 12:47:44;;;;;;;3.43;1.53;;;29.50;39.40;;;;;;4990622;28;20275;-72
2022/08/13 12:50:10;;;;;;;2.50;1.30;;;29.40;40.00;;;;;;5007941;28;20444;-72
2022/08/13 12:52:37;;;;;;;2.43;1.10;;;29.30;39.90;;;;;;5007925;28;20917;-72
2022/08/13 12:55:04;;;;;;;2.00;1.17;;;29.50;40.30;;;;;;5007815;28;20426;-73
2022/08/13 12:57:30;;;;;;;2.30;1.40;;;29.60;39.90;;;;;;5007874;28;20428;-72
2022/08/13 12:59:56;;;;;;;2.87;1.17;;;29.80;40.20;;;;;;5007597;28;20456;-73
2022/08/13 13:02:24;;;;;;;1.70;1.60;;;29.80;40.10;;;;;;5007631;28;20486;-72
2022/08/13 13:04:50;;;;;;;2.30;1.10;;;29.70;39.30;;;;;;5007650;28;21113;-72
2022/08/13 13:07:16;;;;;;;1.93;1.70;;;29.70;40.30;;;;;;5007470;28;20506;-72